createdAt,value
2018-03-18T00:00:01.266Z,1011.22
2018-03-18T00:00:41.838Z,1011.26
2018-03-18T00:01:22.396Z,1011.22
2018-03-18T00:02:02.963Z,1011.33
2018-03-18T00:02:43.537Z,1011.3
2018-03-18T00:03:24.107Z,1011.29
2018-03-18T00:04:04.663Z,1011.29
2018-03-18T00:04:45.247Z,1011.28
2018-03-18T00:05:25.834Z,1011.17
2018-03-18T00:06:06.367Z,1011.35
2018-03-18T00:06:46.930Z,1011.32
2018-03-18T00:07:27.471Z,1011.33
2018-03-18T00:08:08.044Z,1011.33
2018-03-18T00:08:48.611Z,1011.38
2018-03-18T00:09:29.161Z,1011.32
2018-03-18T00:10:09.776Z,1011.28
2018-03-18T00:10:50.404Z,1011.41
2018-03-18T00:11:30.934Z,1011.24
2018-03-18T00:12:11.494Z,1011.27
2018-03-18T00:12:52.082Z,1011.26
2018-03-18T00:13:32.680Z,1011.21
2018-03-18T00:14:13.214Z,1011.34
2018-03-18T00:14:53.787Z,1011.3
2018-03-18T00:15:34.368Z,1011.25
2018-03-18T00:16:14.932Z,1011.19
2018-03-18T00:16:55.487Z,1011.19
2018-03-18T00:17:36.189Z,1011.24
2018-03-18T00:18:17.116Z,1011.28
2018-03-18T00:18:57.703Z,1011.3
2018-03-18T00:19:38.268Z,1011.25
2018-03-18T00:20:18.878Z,1011.33
2018-03-18T00:20:59.374Z,1011.32
2018-03-18T00:21:39.945Z,1011.36
2018-03-18T00:22:20.608Z,1011.35
2018-03-18T00:23:01.166Z,1011.46
2018-03-18T00:23:41.739Z,1011.38
2018-03-18T00:24:22.302Z,1011.39
2018-03-18T00:25:02.861Z,1011.33
2018-03-18T00:25:43.430Z,1011.41
2018-03-18T00:26:23.990Z,1011.47
2018-03-18T00:27:04.536Z,1011.46
2018-03-18T00:27:45.144Z,1011.31
2018-03-18T00:28:25.700Z,1011.51
2018-03-18T00:29:06.251Z,1011.46
2018-03-18T00:29:46.804Z,1011.49
2018-03-18T00:30:27.361Z,1011.45
2018-03-18T00:31:07.912Z,1011.43
2018-03-18T00:31:48.466Z,1011.48
2018-03-18T00:32:29.026Z,1011.45
2018-03-18T00:33:09.660Z,1011.37
2018-03-18T00:33:50.213Z,1011.31
2018-03-18T00:34:30.765Z,1011.39
2018-03-18T00:35:11.319Z,1011.49
2018-03-18T00:35:51.886Z,1011.45
2018-03-18T00:36:32.483Z,1011.45
2018-03-18T00:37:13.030Z,1011.42
2018-03-18T00:37:53.580Z,1011.41
2018-03-18T00:38:34.294Z,1011.48
2018-03-18T00:39:14.851Z,1011.43
2018-03-18T00:39:55.405Z,1011.47
2018-03-18T00:40:36.022Z,1011.47
2018-03-18T00:41:16.606Z,1011.49
2018-03-18T00:41:57.219Z,1011.52
2018-03-18T00:42:37.786Z,1011.45
2018-03-18T00:43:18.326Z,1011.43
2018-03-18T00:43:58.907Z,1011.48
2018-03-18T00:44:39.498Z,1011.5
2018-03-18T00:45:20.061Z,1011.47
2018-03-18T00:46:00.597Z,1011.46
2018-03-18T00:46:41.166Z,1011.46
2018-03-18T00:47:21.726Z,1011.43
2018-03-18T00:48:02.273Z,1011.51
2018-03-18T00:48:42.815Z,1011.27
2018-03-18T00:49:23.442Z,1011.5
2018-03-18T00:50:04.039Z,1011.45
2018-03-18T00:50:44.588Z,1011.48
2018-03-18T00:51:25.168Z,1011.44
2018-03-18T00:52:05.755Z,1011.41
2018-03-18T00:52:46.350Z,1011.45
2018-03-18T00:53:26.913Z,1011.46
2018-03-18T00:54:07.490Z,1011.47
2018-03-18T00:54:48.036Z,1011.42
2018-03-18T00:55:28.598Z,1011.41
2018-03-18T00:56:09.227Z,1011.49
2018-03-18T00:56:49.777Z,1011.43
2018-03-18T00:57:30.342Z,1011.54
2018-03-18T00:58:10.908Z,1011.43
2018-03-18T00:58:51.482Z,1011.42
2018-03-18T00:59:32.066Z,1011.37
2018-03-18T01:00:12.631Z,1011.41
2018-03-18T01:00:53.244Z,1011.48
2018-03-18T01:01:34.133Z,1011.43
2018-03-18T01:02:14.686Z,1011.42
2018-03-18T01:02:55.285Z,1011.49
2018-03-18T01:03:35.898Z,1011.45
2018-03-18T01:04:16.674Z,1011.42
2018-03-18T01:04:57.208Z,1011.41
2018-03-18T01:05:37.797Z,1011.43
2018-03-18T01:06:18.552Z,1011.49
2018-03-18T01:06:59.207Z,1011.5
2018-03-18T01:07:39.882Z,1011.44
2018-03-18T01:08:20.459Z,1011.48
2018-03-18T01:09:01.071Z,1011.47
2018-03-18T01:09:41.692Z,1011.47
2018-03-18T01:10:22.251Z,1011.4
2018-03-18T01:11:02.806Z,1011.48
2018-03-18T01:11:43.417Z,1011.49
2018-03-18T01:12:23.985Z,1011.49
2018-03-18T01:13:04.537Z,1011.45
2018-03-18T01:13:45.111Z,1011.48
2018-03-18T01:14:25.642Z,1011.55
2018-03-18T01:15:06.229Z,1011.51
2018-03-18T01:15:46.778Z,1011.33
2018-03-18T01:16:27.390Z,1011.45
2018-03-18T01:17:07.962Z,1011.41
2018-03-18T01:17:48.536Z,1011.46
2018-03-18T01:18:29.144Z,1011.48
2018-03-18T01:19:09.739Z,1011.47
2018-03-18T01:19:50.360Z,1011.48
2018-03-18T01:20:30.965Z,1011.4
2018-03-18T01:21:11.487Z,1011.49
2018-03-18T01:21:52.125Z,1011.39
2018-03-18T01:22:32.740Z,1011.49
2018-03-18T01:23:13.303Z,1011.4
2018-03-18T01:23:53.853Z,1011.43
2018-03-18T01:24:34.453Z,1011.57
2018-03-18T01:25:15.111Z,1011.45
2018-03-18T01:25:55.667Z,1011.4
2018-03-18T01:26:36.238Z,1011.45
2018-03-18T01:27:17.025Z,1011.48
2018-03-18T01:27:57.598Z,1011.44
2018-03-18T01:28:38.192Z,1011.45
2018-03-18T01:29:18.843Z,1011.45
2018-03-18T01:29:59.406Z,1011.49
2018-03-18T01:30:39.959Z,1011.38
2018-03-18T01:31:20.528Z,1011.41
2018-03-18T01:32:01.208Z,1011.5
2018-03-18T01:32:41.836Z,1011.44
2018-03-18T01:33:22.379Z,1011.45
2018-03-18T01:34:02.952Z,1011.54
2018-03-18T01:34:43.623Z,1011.42
2018-03-18T01:35:24.203Z,1011.42
2018-03-18T01:36:04.766Z,1011.41
2018-03-18T01:36:45.370Z,1011.4
2018-03-18T01:37:25.964Z,1011.47
2018-03-18T01:38:06.506Z,1011.37
2018-03-18T01:38:47.092Z,1011.42
2018-03-18T01:39:27.675Z,1011.47
2018-03-18T01:40:08.295Z,1011.52
2018-03-18T01:40:48.861Z,1011.5
2018-03-18T01:41:29.432Z,1011.46
2018-03-18T01:42:09.982Z,1011.48
2018-03-18T01:42:50.595Z,1011.49
2018-03-18T01:43:31.159Z,1011.47
2018-03-18T01:44:11.735Z,1011.44
2018-03-18T01:44:52.301Z,1011.47
2018-03-18T01:45:32.913Z,1011.4
2018-03-18T01:46:13.469Z,1011.46
2018-03-18T01:46:54.068Z,1011.52
2018-03-18T01:47:34.614Z,1011.52
2018-03-18T01:48:15.282Z,1011.36
2018-03-18T01:48:55.836Z,1011.31
2018-03-18T01:49:36.428Z,1011.4
2018-03-18T01:50:17.033Z,1011.46
2018-03-18T01:50:57.608Z,1011.49
2018-03-18T01:51:38.227Z,1011.47
2018-03-18T01:52:18.788Z,1011.45
2018-03-18T01:52:59.393Z,1011.49
2018-03-18T01:53:39.966Z,1011.41
2018-03-18T01:54:20.531Z,1011.44
2018-03-18T01:55:01.094Z,1011.51
2018-03-18T01:55:41.662Z,1011.43
2018-03-18T01:56:22.290Z,1011.47
2018-03-18T01:57:02.840Z,1011.45
2018-03-18T01:57:43.427Z,1011.48
2018-03-18T01:58:23.973Z,1011.49
2018-03-18T01:59:04.526Z,1011.57
2018-03-18T01:59:45.070Z,1011.38
2018-03-18T02:00:25.738Z,1011.47
2018-03-18T02:01:06.293Z,1011.47
2018-03-18T02:01:47.020Z,1011.48
2018-03-18T02:02:27.579Z,1011.51
2018-03-18T02:03:08.138Z,1011.51
2018-03-18T02:03:48.697Z,1011.55
2018-03-18T02:04:29.267Z,1011.43
2018-03-18T02:05:09.843Z,1011.5
2018-03-18T02:05:50.410Z,1011.5
2018-03-18T02:06:30.988Z,1011.5
2018-03-18T02:07:11.569Z,1011.57
2018-03-18T02:07:52.138Z,1011.52
2018-03-18T02:08:32.728Z,1011.51
2018-03-18T02:09:13.280Z,1011.45
2018-03-18T02:09:53.935Z,1011.43
2018-03-18T02:10:34.482Z,1011.44
2018-03-18T02:11:15.104Z,1011.47
2018-03-18T02:11:55.659Z,1011.46
2018-03-18T02:12:36.246Z,1011.48
2018-03-18T02:13:16.929Z,1011.52
2018-03-18T02:13:57.699Z,1011.55
2018-03-18T02:14:38.326Z,1011.45
2018-03-18T02:15:18.852Z,1011.47
2018-03-18T02:15:59.401Z,1011.5
2018-03-18T02:16:40.080Z,1011.47
2018-03-18T02:17:20.693Z,1011.48
2018-03-18T02:18:01.359Z,1011.5
2018-03-18T02:18:41.924Z,1011.41
2018-03-18T02:19:22.471Z,1011.47
2018-03-18T02:20:03.030Z,1011.52
2018-03-18T02:20:43.576Z,1011.38
2018-03-18T02:21:24.146Z,1011.39
2018-03-18T02:22:04.715Z,1011.51
2018-03-18T02:22:45.288Z,1011.43
2018-03-18T02:23:25.861Z,1011.54
2018-03-18T02:24:06.420Z,1011.51
2018-03-18T02:24:47.030Z,1011.46
2018-03-18T02:25:27.608Z,1011.51
2018-03-18T02:26:08.152Z,1011.42
2018-03-18T02:26:48.716Z,1011.47
2018-03-18T02:27:29.310Z,1011.45
2018-03-18T02:28:09.918Z,1011.46
2018-03-18T02:28:50.470Z,1011.47
2018-03-18T02:29:31.077Z,1011.47
2018-03-18T02:30:11.750Z,1011.38
2018-03-18T02:30:52.317Z,1011.43
2018-03-18T02:31:32.897Z,1011.42
2018-03-18T02:32:13.450Z,1011.43
2018-03-18T02:32:54.033Z,1011.45
2018-03-18T02:33:34.619Z,1011.48
2018-03-18T02:34:15.168Z,1011.53
2018-03-18T02:34:55.721Z,1011.4
2018-03-18T02:35:36.272Z,1011.32
2018-03-18T02:36:16.928Z,1011.44
2018-03-18T02:36:57.496Z,1011.44
2018-03-18T02:37:38.053Z,1011.39
2018-03-18T02:38:18.618Z,1011.54
2018-03-18T02:38:59.206Z,1011.41
2018-03-18T02:39:39.771Z,1011.47
2018-03-18T02:40:20.330Z,1011.42
2018-03-18T02:41:00.892Z,1011.39
2018-03-18T02:41:41.456Z,1011.43
2018-03-18T02:42:22.045Z,1011.49
2018-03-18T02:43:02.593Z,1011.45
2018-03-18T02:43:43.171Z,1011.48
2018-03-18T02:44:23.750Z,1011.54
2018-03-18T02:45:04.342Z,1011.45
2018-03-18T02:45:44.930Z,1011.52
2018-03-18T02:46:25.521Z,1011.48
2018-03-18T02:47:06.070Z,1011.4
2018-03-18T02:47:46.850Z,1011.45
2018-03-18T02:48:27.415Z,1011.46
2018-03-18T02:49:08.016Z,1011.45
2018-03-18T02:49:48.580Z,1011.47
2018-03-18T02:50:29.225Z,1011.42
2018-03-18T02:51:09.805Z,1011.42
2018-03-18T02:51:50.377Z,1011.51
2018-03-18T02:52:30.926Z,1011.46
2018-03-18T02:53:11.510Z,1011.51
2018-03-18T02:53:52.058Z,1011.5
2018-03-18T02:54:32.637Z,1011.49
2018-03-18T02:55:13.248Z,1011.42
2018-03-18T02:55:53.928Z,1011.44
2018-03-18T02:56:34.600Z,1011.45
2018-03-18T02:57:15.202Z,1011.49
2018-03-18T02:57:55.768Z,1011.5
2018-03-18T02:58:36.325Z,1011.55
2018-03-18T02:59:16.877Z,1011.4
2018-03-18T02:59:57.430Z,1011.49
2018-03-18T03:00:38.052Z,1011.59
2018-03-18T03:01:18.686Z,1011.54
2018-03-18T03:01:59.296Z,1011.54
2018-03-18T03:02:39.844Z,1011.5
2018-03-18T03:03:20.438Z,1011.48
2018-03-18T03:04:01.001Z,1011.52
2018-03-18T03:04:41.564Z,1011.51
2018-03-18T03:05:22.116Z,1011.59
2018-03-18T03:06:02.674Z,1011.48
2018-03-18T03:06:43.258Z,1011.48
2018-03-18T03:07:23.860Z,1011.59
2018-03-18T03:08:04.435Z,1011.55
2018-03-18T03:08:45.045Z,1011.58
2018-03-18T03:09:25.646Z,1011.59
2018-03-18T03:10:06.201Z,1011.51
2018-03-18T03:10:46.778Z,1011.52
2018-03-18T03:11:27.355Z,1011.36
2018-03-18T03:12:07.933Z,1011.54
2018-03-18T03:12:48.526Z,1011.59
2018-03-18T03:13:29.085Z,1011.56
2018-03-18T03:14:09.642Z,1011.57
2018-03-18T03:14:50.196Z,1011.57
2018-03-18T03:15:30.800Z,1011.56
2018-03-18T03:16:11.357Z,1011.53
2018-03-18T03:16:51.925Z,1011.52
2018-03-18T03:17:32.470Z,1011.55
2018-03-18T03:18:13.024Z,1011.56
2018-03-18T03:18:53.614Z,1011.52
2018-03-18T03:19:34.286Z,1011.59
2018-03-18T03:20:14.796Z,1011.6
2018-03-18T03:20:55.376Z,1011.54
2018-03-18T03:21:35.963Z,1011.63
2018-03-18T03:22:16.598Z,1011.65
2018-03-18T03:22:57.133Z,1011.63
2018-03-18T03:23:37.693Z,1011.57
2018-03-18T03:24:18.285Z,1011.7
2018-03-18T03:24:58.986Z,1011.67
2018-03-18T03:25:39.501Z,1011.63
2018-03-18T03:26:20.096Z,1011.73
2018-03-18T03:27:00.720Z,1011.66
2018-03-18T03:27:41.415Z,1011.67
2018-03-18T03:28:21.895Z,1011.61
2018-03-18T03:29:02.468Z,1011.67
2018-03-18T03:29:43.091Z,1011.64
2018-03-18T03:30:23.660Z,1011.56
2018-03-18T03:31:04.213Z,1011.65
2018-03-18T03:31:44.816Z,1011.67
2018-03-18T03:32:25.379Z,1011.69
2018-03-18T03:33:05.974Z,1011.67
2018-03-18T03:33:46.497Z,1011.72
2018-03-18T03:34:27.129Z,1011.69
2018-03-18T03:35:07.706Z,1011.66
2018-03-18T03:35:48.267Z,1011.74
2018-03-18T03:36:28.817Z,1011.76
2018-03-18T03:37:09.496Z,1011.69
2018-03-18T03:37:50.045Z,1011.78
2018-03-18T03:38:30.611Z,1011.71
2018-03-18T03:39:11.212Z,1011.73
2018-03-18T03:39:51.782Z,1011.63
2018-03-18T03:40:32.365Z,1011.66
2018-03-18T03:41:12.919Z,1011.79
2018-03-18T03:41:53.464Z,1011.66
2018-03-18T03:42:34.030Z,1011.69
2018-03-18T03:43:14.606Z,1011.74
2018-03-18T03:43:55.176Z,1011.73
2018-03-18T03:44:35.746Z,1011.72
2018-03-18T03:45:16.294Z,1011.71
2018-03-18T03:45:56.858Z,1011.71
2018-03-18T03:46:37.427Z,1011.8
2018-03-18T03:47:17.984Z,1011.63
2018-03-18T03:47:58.565Z,1011.75
2018-03-18T03:48:39.138Z,1011.75
2018-03-18T03:49:19.719Z,1011.69
2018-03-18T03:50:00.288Z,1011.71
2018-03-18T03:50:40.961Z,1011.84
2018-03-18T03:51:21.576Z,1011.77
2018-03-18T03:52:02.140Z,1011.75
2018-03-18T03:52:42.704Z,1011.77
2018-03-18T03:53:23.284Z,1011.81
2018-03-18T03:54:03.848Z,1011.75
2018-03-18T03:54:44.460Z,1011.76
2018-03-18T03:55:25.037Z,1011.77
2018-03-18T03:56:05.685Z,1011.73
2018-03-18T03:56:46.235Z,1011.74
2018-03-18T03:57:26.884Z,1011.79
2018-03-18T03:58:07.446Z,1011.86
2018-03-18T03:58:48.069Z,1011.83
2018-03-18T03:59:28.643Z,1011.86
2018-03-18T04:00:09.332Z,1011.86
2018-03-18T04:00:49.880Z,1011.79
2018-03-18T04:01:30.458Z,1011.82
2018-03-18T04:02:11.002Z,1011.84
2018-03-18T04:02:51.613Z,1011.83
2018-03-18T04:03:32.228Z,1011.85
2018-03-18T04:04:12.831Z,1011.88
2018-03-18T04:04:53.416Z,1011.79
2018-03-18T04:05:34.003Z,1011.85
2018-03-18T04:06:14.560Z,1011.81
2018-03-18T04:06:55.214Z,1011.86
2018-03-18T04:07:35.803Z,1011.9
2018-03-18T04:08:16.362Z,1011.77
2018-03-18T04:08:56.973Z,1011.75
2018-03-18T04:09:37.519Z,1011.78
2018-03-18T04:10:18.082Z,1011.81
2018-03-18T04:10:58.635Z,1011.81
2018-03-18T04:11:39.345Z,1011.87
2018-03-18T04:12:19.886Z,1011.85
2018-03-18T04:13:00.494Z,1011.9
2018-03-18T04:13:41.062Z,1011.88
2018-03-18T04:14:21.705Z,1011.92
2018-03-18T04:15:02.234Z,1011.85
2018-03-18T04:15:42.785Z,1011.83
2018-03-18T04:16:23.393Z,1011.83
2018-03-18T04:17:04.114Z,1011.8
2018-03-18T04:17:44.593Z,1011.83
2018-03-18T04:18:25.207Z,1011.84
2018-03-18T04:19:06.078Z,1011.94
2018-03-18T04:19:46.631Z,1011.89
2018-03-18T04:20:27.209Z,1011.91
2018-03-18T04:21:07.766Z,1011.82
2018-03-18T04:21:48.314Z,1011.81
2018-03-18T04:22:28.909Z,1011.79
2018-03-18T04:23:09.477Z,1011.86
2018-03-18T04:23:50.086Z,1011.8
2018-03-18T04:24:30.670Z,1011.77
2018-03-18T04:25:11.404Z,1011.68
2018-03-18T04:25:51.861Z,1011.7
2018-03-18T04:26:32.426Z,1011.76
2018-03-18T04:27:13.050Z,1011.66
2018-03-18T04:27:53.759Z,1011.84
2018-03-18T04:28:34.208Z,1011.84
2018-03-18T04:29:14.781Z,1011.78
2018-03-18T04:29:55.544Z,1011.8
2018-03-18T04:30:36.233Z,1011.91
2018-03-18T04:31:16.852Z,1011.82
2018-03-18T04:31:57.416Z,1011.78
2018-03-18T04:32:38.005Z,1011.81
2018-03-18T04:33:18.683Z,1011.84
2018-03-18T04:33:59.230Z,1011.88
2018-03-18T04:34:39.791Z,1011.82
2018-03-18T04:35:20.390Z,1011.87
2018-03-18T04:36:01.293Z,1011.84
2018-03-18T04:36:41.664Z,1011.9
2018-03-18T04:37:22.214Z,1011.88
2018-03-18T04:38:02.937Z,1011.85
2018-03-18T04:38:43.637Z,1011.87
2018-03-18T04:39:24.190Z,1011.94
2018-03-18T04:40:04.765Z,1011.9
2018-03-18T04:40:45.325Z,1011.98
2018-03-18T04:41:26.053Z,1011.91
2018-03-18T04:42:06.611Z,1011.9
2018-03-18T04:42:47.222Z,1011.9
2018-03-18T04:43:27.835Z,1011.93
2018-03-18T04:44:08.468Z,1011.89
2018-03-18T04:44:49.057Z,1011.9
2018-03-18T04:45:29.621Z,1011.89
2018-03-18T04:46:10.189Z,1011.8
2018-03-18T04:46:50.960Z,1011.91
2018-03-18T04:47:31.499Z,1011.88
2018-03-18T04:48:12.075Z,1011.88
2018-03-18T04:48:52.632Z,1011.93
2018-03-18T04:49:33.361Z,1011.87
2018-03-18T04:50:13.824Z,1011.93
2018-03-18T04:50:54.376Z,1011.91
2018-03-18T04:51:35.072Z,1011.86
2018-03-18T04:52:15.803Z,1011.96
2018-03-18T04:52:56.231Z,1011.94
2018-03-18T04:53:36.790Z,1012.01
2018-03-18T04:54:17.482Z,1011.99
2018-03-18T04:54:58.099Z,1011.94
2018-03-18T04:55:38.620Z,1011.95
2018-03-18T04:56:19.191Z,1012.01
2018-03-18T04:56:59.799Z,1011.99
2018-03-18T04:57:40.385Z,1011.98
2018-03-18T04:58:20.937Z,1012
2018-03-18T04:59:01.531Z,1012
2018-03-18T04:59:42.128Z,1012
2018-03-18T05:00:22.647Z,1012.03
2018-03-18T05:01:03.204Z,1012.05
2018-03-18T05:01:43.857Z,1011.95
2018-03-18T05:02:24.446Z,1011.99
2018-03-18T05:03:04.985Z,1012.07
2018-03-18T05:03:45.552Z,1012.02
2018-03-18T05:04:26.121Z,1012.06
2018-03-18T05:05:06.676Z,1011.95
2018-03-18T05:05:47.232Z,1012
2018-03-18T05:06:27.790Z,1012.03
2018-03-18T05:07:08.372Z,1012.03
2018-03-18T05:07:48.928Z,1012.14
2018-03-18T05:08:29.518Z,1012.03
2018-03-18T05:09:10.082Z,1012.05
2018-03-18T05:09:50.757Z,1012.11
2018-03-18T05:10:31.341Z,1012.03
2018-03-18T05:11:12.008Z,1012.04
2018-03-18T05:11:52.565Z,1012.07
2018-03-18T05:12:33.252Z,1012.17
2018-03-18T05:13:13.796Z,1012.15
2018-03-18T05:13:54.535Z,1012.1
2018-03-18T05:14:35.101Z,1012.12
2018-03-18T05:15:15.818Z,1012.12
2018-03-18T05:15:56.375Z,1012.07
2018-03-18T05:16:37.004Z,1012.14
2018-03-18T05:17:17.541Z,1012.18
2018-03-18T05:17:58.145Z,1012.09
2018-03-18T05:18:38.706Z,1012.14
2018-03-18T05:19:19.366Z,1012.07
2018-03-18T05:19:59.887Z,1012.16
2018-03-18T05:20:40.428Z,1012.12
2018-03-18T05:21:20.981Z,1012.15
2018-03-18T05:22:01.537Z,1012.12
2018-03-18T05:22:42.163Z,1012.16
2018-03-18T05:23:22.719Z,1012.17
2018-03-18T05:24:03.291Z,1012.13
2018-03-18T05:24:43.887Z,1012.11
2018-03-18T05:25:24.560Z,1012.12
2018-03-18T05:26:05.181Z,1012.14
2018-03-18T05:26:45.729Z,1012.14
2018-03-18T05:27:26.342Z,1012.19
2018-03-18T05:28:06.989Z,1012.13
2018-03-18T05:28:47.514Z,1012.17
2018-03-18T05:29:28.075Z,1012.12
2018-03-18T05:30:08.770Z,1012.19
2018-03-18T05:30:49.443Z,1012.24
2018-03-18T05:31:29.929Z,1012.24
2018-03-18T05:32:10.486Z,1012.25
2018-03-18T05:32:51.176Z,1012.25
2018-03-18T05:33:31.749Z,1012.2
2018-03-18T05:34:12.287Z,1012.22
2018-03-18T05:34:52.971Z,1012.2
2018-03-18T05:35:33.531Z,1012.24
2018-03-18T05:36:14.088Z,1012.29
2018-03-18T05:36:54.712Z,1012.29
2018-03-18T05:37:35.413Z,1012.29
2018-03-18T05:38:15.984Z,1012.25
2018-03-18T05:38:56.530Z,1012.23
2018-03-18T05:39:37.078Z,1012.3
2018-03-18T05:40:17.724Z,1012.22
2018-03-18T05:40:58.279Z,1012.21
2018-03-18T05:41:38.830Z,1012.28
2018-03-18T05:42:19.414Z,1012.28
2018-03-18T05:42:59.970Z,1012.31
2018-03-18T05:43:40.546Z,1012.28
2018-03-18T05:44:21.135Z,1012.19
2018-03-18T05:45:01.706Z,1012.25
2018-03-18T05:45:42.269Z,1012.23
2018-03-18T05:46:22.826Z,1012.24
2018-03-18T05:47:03.435Z,1012.29
2018-03-18T05:47:43.988Z,1012.2
2018-03-18T05:48:24.626Z,1012.28
2018-03-18T05:49:05.197Z,1012.34
2018-03-18T05:49:45.848Z,1012.31
2018-03-18T05:50:26.404Z,1012.27
2018-03-18T05:51:07.032Z,1012.32
2018-03-18T05:51:47.580Z,1012.32
2018-03-18T05:52:28.237Z,1012.36
2018-03-18T05:53:08.818Z,1012.34
2018-03-18T05:53:49.373Z,1012.27
2018-03-18T05:54:29.949Z,1012.37
2018-03-18T05:55:10.520Z,1012.34
2018-03-18T05:55:51.160Z,1012.46
2018-03-18T05:56:31.702Z,1012.34
2018-03-18T05:57:12.250Z,1012.38
2018-03-18T05:57:52.808Z,1012.33
2018-03-18T05:58:33.579Z,1012.41
2018-03-18T05:59:14.011Z,1012.39
2018-03-18T05:59:54.570Z,1012.29
2018-03-18T06:00:35.297Z,1012.33
2018-03-18T06:01:16.071Z,1012.37
2018-03-18T06:01:56.476Z,1012.39
2018-03-18T06:02:37.030Z,1012.34
2018-03-18T06:03:17.586Z,1012.31
2018-03-18T06:03:58.157Z,1012.47
2018-03-18T06:04:38.706Z,1012.44
2018-03-18T06:05:19.348Z,1012.4
2018-03-18T06:05:59.898Z,1012.45
2018-03-18T06:06:40.448Z,1012.41
2018-03-18T06:07:21.036Z,1012.47
2018-03-18T06:08:01.611Z,1012.52
2018-03-18T06:08:42.161Z,1012.46
2018-03-18T06:09:22.723Z,1012.41
2018-03-18T06:10:03.287Z,1012.51
2018-03-18T06:10:43.880Z,1012.51
2018-03-18T06:11:24.470Z,1012.5
2018-03-18T06:12:05.006Z,1012.52
2018-03-18T06:12:45.589Z,1012.53
2018-03-18T06:13:26.184Z,1012.53
2018-03-18T06:14:06.751Z,1012.49
2018-03-18T06:14:47.558Z,1012.52
2018-03-18T06:15:28.104Z,1012.6
2018-03-18T06:16:08.956Z,1012.55
2018-03-18T06:16:49.522Z,1012.61
2018-03-18T06:17:30.079Z,1012.58
2018-03-18T06:18:10.630Z,1012.59
2018-03-18T06:18:51.381Z,1012.57
2018-03-18T06:19:31.938Z,1012.46
2018-03-18T06:20:12.502Z,1012.57
2018-03-18T06:20:53.065Z,1012.59
2018-03-18T06:21:33.824Z,1012.6
2018-03-18T06:22:14.372Z,1012.53
2018-03-18T06:22:55.034Z,1012.55
2018-03-18T06:23:35.601Z,1012.61
2018-03-18T06:24:16.336Z,1012.55
2018-03-18T06:24:56.913Z,1012.76
2018-03-18T06:25:37.442Z,1012.65
2018-03-18T06:26:18.013Z,1012.56
2018-03-18T06:26:58.566Z,1012.66
2018-03-18T06:27:39.117Z,1012.68
2018-03-18T06:28:19.659Z,1012.6
2018-03-18T06:29:00.344Z,1012.72
2018-03-18T06:29:40.899Z,1012.75
2018-03-18T06:30:21.459Z,1012.66
2018-03-18T06:31:02.080Z,1012.74
2018-03-18T06:31:42.798Z,1012.63
2018-03-18T06:32:23.282Z,1012.71
2018-03-18T06:33:03.842Z,1012.7
2018-03-18T06:33:44.600Z,1012.7
2018-03-18T06:34:25.327Z,1012.73
2018-03-18T06:35:06.652Z,1012.68
2018-03-18T06:35:46.473Z,1012.56
2018-03-18T06:36:27.203Z,1012.71
2018-03-18T06:37:07.820Z,1012.75
2018-03-18T06:37:48.367Z,1012.68
2018-03-18T06:38:28.996Z,1012.76
2018-03-18T06:39:09.577Z,1012.58
2018-03-18T06:39:50.216Z,1012.69
2018-03-18T06:40:30.810Z,1012.72
2018-03-18T06:41:11.381Z,1012.76
2018-03-18T06:41:52.149Z,1012.77
2018-03-18T06:42:32.852Z,1012.77
2018-03-18T06:43:13.367Z,1012.85
2018-03-18T06:43:53.975Z,1012.82
2018-03-18T06:44:34.674Z,1012.79
2018-03-18T06:45:15.452Z,1012.9
2018-03-18T06:45:56.082Z,1012.81
2018-03-18T06:46:36.628Z,1012.84
2018-03-18T06:47:17.183Z,1012.76
2018-03-18T06:47:57.870Z,1012.86
2018-03-18T06:48:39.407Z,1012.76
2018-03-18T06:49:22.594Z,1012.9
2018-03-18T06:50:04.182Z,1012.87
2018-03-18T06:50:44.900Z,1012.89
2018-03-18T06:51:25.652Z,1012.81
2018-03-18T06:52:06.656Z,1012.88
2018-03-18T06:52:47.758Z,1012.89
2018-03-18T06:53:28.599Z,1012.82
2018-03-18T06:54:09.056Z,1012.88
2018-03-18T06:54:49.628Z,1012.99
2018-03-18T06:55:30.201Z,1012.94
2018-03-18T06:56:10.937Z,1012.87
2018-03-18T06:56:51.484Z,1012.87
2018-03-18T06:57:32.877Z,1012.85
2018-03-18T06:58:13.650Z,1012.87
2018-03-18T06:58:57.391Z,1012.91
2018-03-18T06:59:38.657Z,1012.89
2018-03-18T07:00:19.549Z,1012.91
2018-03-18T07:01:00.109Z,1012.91
2018-03-18T07:01:40.675Z,1012.93
2018-03-18T07:02:21.233Z,1012.95
2018-03-18T07:04:36.717Z,1013.01
2018-03-18T07:05:17.513Z,1013.02
2018-03-18T07:05:58.046Z,1013
2018-03-18T07:06:38.634Z,1013.04
2018-03-18T07:07:19.205Z,1013.06
2018-03-18T07:07:59.757Z,1013.06
2018-03-18T07:08:40.344Z,1013.02
2018-03-18T07:09:20.897Z,1012.96
2018-03-18T07:10:01.464Z,1013.08
2018-03-18T07:10:42.033Z,1013
2018-03-18T07:11:22.601Z,1013.06
2018-03-18T07:12:03.173Z,1013.01
2018-03-18T07:12:43.758Z,1013.05
2018-03-18T07:13:24.300Z,1013.04
2018-03-18T07:14:04.845Z,1013.05
2018-03-18T07:14:45.440Z,1013.1
2018-03-18T07:15:26.051Z,1013.05
2018-03-18T07:16:06.591Z,1013.03
2018-03-18T07:16:47.200Z,1013.08
2018-03-18T07:17:27.742Z,1013.17
2018-03-18T07:18:08.306Z,1013.14
2018-03-18T07:18:48.923Z,1013.23
2018-03-18T07:19:29.482Z,1013.07
2018-03-18T07:20:10.076Z,1013.22
2018-03-18T07:20:50.642Z,1013.17
2018-03-18T07:21:31.192Z,1013.11
2018-03-18T07:22:11.761Z,1013.26
2018-03-18T07:22:52.313Z,1013.19
2018-03-18T07:23:32.875Z,1013.12
2018-03-18T07:24:13.430Z,1013.18
2018-03-18T07:24:54.003Z,1013.16
2018-03-18T07:25:34.597Z,1013.21
2018-03-18T07:26:15.152Z,1013.25
2018-03-18T07:26:55.718Z,1013.21
2018-03-18T07:27:36.286Z,1013.4
2018-03-18T07:28:16.835Z,1013.28
2018-03-18T07:28:57.399Z,1013.23
2018-03-18T07:29:37.961Z,1013.37
2018-03-18T07:30:18.510Z,1013.32
2018-03-18T07:30:59.154Z,1013.37
2018-03-18T07:31:39.704Z,1013.34
2018-03-18T07:32:20.274Z,1013.48
2018-03-18T07:33:00.829Z,1013.34
2018-03-18T07:33:41.396Z,1013.35
2018-03-18T07:34:21.955Z,1013.44
2018-03-18T07:35:02.558Z,1013.45
2018-03-18T07:35:43.128Z,1013.5
2018-03-18T07:36:23.693Z,1013.51
2018-03-18T07:37:04.250Z,1013.41
2018-03-18T07:37:44.828Z,1013.5
2018-03-18T07:38:25.386Z,1013.52
2018-03-18T07:39:05.950Z,1013.62
2018-03-18T07:39:46.584Z,1013.58
2018-03-18T07:40:27.194Z,1013.63
2018-03-18T07:41:07.776Z,1013.74
2018-03-18T07:41:48.340Z,1013.65
2018-03-18T07:42:28.901Z,1013.66
2018-03-18T07:43:09.467Z,1013.58
2018-03-18T07:43:50.035Z,1013.69
2018-03-18T07:44:30.589Z,1013.63
2018-03-18T07:45:11.153Z,1013.81
2018-03-18T07:45:51.702Z,1013.52
2018-03-18T07:46:32.266Z,1013.57
2018-03-18T07:47:12.834Z,1013.8
2018-03-18T07:47:53.386Z,1013.76
2018-03-18T07:48:33.973Z,1013.75
2018-03-18T07:49:14.954Z,1013.61
2018-03-18T07:49:55.624Z,1013.67
2018-03-18T07:50:36.229Z,1013.71
2018-03-18T07:51:16.756Z,1013.78
2018-03-18T07:51:58.496Z,1013.84
2018-03-18T07:52:39.412Z,1013.8
2018-03-18T07:53:20.388Z,1013.8
2018-03-18T07:54:00.977Z,1013.84
2018-03-18T07:54:41.889Z,1013.82
2018-03-18T07:55:22.933Z,1013.86
2018-03-18T07:56:03.678Z,1013.8
2018-03-18T07:56:44.396Z,1013.87
2018-03-18T07:57:25.206Z,1013.89
2018-03-18T07:58:05.959Z,1013.8
2018-03-18T07:58:46.906Z,1013.97
2018-03-18T07:59:28.500Z,1013.88
2018-03-18T08:00:09.189Z,1014
2018-03-18T08:00:49.993Z,1013.86
2018-03-18T08:01:30.571Z,1013.84
2018-03-18T08:02:11.381Z,1013.9
2018-03-18T08:02:52.011Z,1013.91
2018-03-18T08:03:32.752Z,1013.82
2018-03-18T08:04:13.999Z,1013.81
2018-03-18T08:04:54.562Z,1013.84
2018-03-18T08:05:35.333Z,1013.73
2018-03-18T08:06:16.226Z,1013.82
2018-03-18T08:06:57.043Z,1013.73
2018-03-18T08:07:38.036Z,1013.76
2018-03-18T08:08:19.032Z,1013.81
2018-03-18T08:09:00.334Z,1013.64
2018-03-18T08:09:41.174Z,1013.75
2018-03-18T08:10:22.119Z,1013.81
2018-03-18T08:11:02.802Z,1013.87
2018-03-18T08:11:43.377Z,1013.82
2018-03-18T08:12:24.356Z,1013.84
2018-03-18T08:13:05.106Z,1013.86
2018-03-18T08:13:45.988Z,1013.86
2018-03-18T08:14:26.648Z,1013.92